Time;durP1;ratioP1;P1;durP2;ratioP2;P2;SDS_P1;SDS_P2;PMS_P1;PMS_P2;Temp;Humidity;BMP_temperature;BMP_pressure;BME280_temperature;BME280_humidity;BME280_pressure;Samples;Min_cycle;Max_cycle;Signal;HPM_P1;HPM_P2
2022/06/21 00:01:37;;;;;;;1.40;1.30;;;;;;;;;;4563551;28;20036;-70
2022/06/21 00:03:48;;;;;;;2.70;1.35;;;;;;;;;;4563851;28;20040;-70
2022/06/21 00:05:59;;;;;;;2.20;1.20;;;;;;;;;;4574559;28;20584;-70
2022/06/21 00:08:17;;;;;;;1.90;1.20;;;;;;;;;;4565850;27;20037;-70
2022/06/21 00:10:27;;;;;;;1.30;1.00;;;;;;;;;;4566911;28;20107;-71
2022/06/21 00:12:38;;;;;;;1.70;1.27;;;;;;;;;;4564476;28;30379;-71
2022/06/21 00:14:49;;;;;;;2.00;1.30;;;;;;;;;;4565850;28;20028;-70
2022/06/21 00:16:59;;;;;;;1.20;1.10;;;;;;;;;;4567346;28;20493;-70
2022/06/21 00:19:18;;;;;;;2.13;1.23;;;;;;;;;;4566259;28;20037;-70
2022/06/21 00:21:36;;;;;;;1.33;1.10;;;;;;;;;;4567735;28;20660;-70
2022/06/21 00:23:47;;;;;;;1.45;1.35;;;;;;;;;;4565551;28;20066;-70
2022/06/21 00:25:58;;;;;;;1.63;1.20;;;;;;;;;;4562296;28;20550;-71
2022/06/21 00:28:09;;;;;;;1.80;1.35;;;;;;;;;;4561110;28;20050;-71
2022/06/21 00:30:20;;;;;;;1.40;1.30;;;;;;;;;;4563683;28;20035;-70
2022/06/21 00:32:31;;;;;;;2.22;1.20;;;;;;;;;;4544298;28;20140;-71
2022/06/21 00:34:43;;;;;;;3.00;1.52;;;;;;;;;;4562501;28;20059;-71
2022/06/21 00:36:54;;;;;;;1.52;1.42;;;;;;;;;;4573229;28;20028;-70
2022/06/21 00:39:05;;;;;;;1.55;1.30;;;;;;;;;;4563031;28;20040;-70
2022/06/21 00:41:16;;;;;;;1.85;1.13;;;;;;;;;;4554618;28;20584;-71
2022/06/21 00:43:31;;;;;;;1.33;1.20;;;;;;;;;;4564111;27;20087;-71
2022/06/21 00:45:44;;;;;;;1.40;1.25;;;;;;;;;;4563005;28;20052;-71
2022/06/21 00:47:58;;;;;;;1.67;1.25;;;;;;;;;;4563323;28;20044;-71
2022/06/21 00:50:19;;;;;;;1.67;1.17;;;;;;;;;;4564578;28;20113;-71
2022/06/21 00:52:42;;;;;;;1.70;1.30;;;;;;;;;;4565140;28;20595;-70
2022/06/21 00:55:18;;;;;;;1.40;1.17;;;;;;;;;;4563628;28;20712;-71
2022/06/21 00:57:33;;;;;;;;;;;;;;;;;;4562408;28;20116;-71
2022/06/21 00:59:47;;;;;;;1.58;1.30;;;;;;;;;;4554678;28;19916;-70
2022/06/21 01:02:02;;;;;;;1.30;1.08;;;;;;;;;;4562775;28;20032;-72
2022/06/21 01:04:25;;;;;;;1.40;1.13;;;;;;;;;;4562486;28;20056;-71
2022/06/21 01:06:39;;;;;;;1.50;1.20;;;;;;;;;;4564784;28;20032;-71
2022/06/21 01:08:57;;;;;;;2.08;1.20;;;;;;;;;;4563526;28;20797;-70
2022/06/21 01:11:15;;;;;;;1.90;1.20;;;;;;;;;;4566321;27;20564;-71
2022/06/21 01:13:28;;;;;;;1.52;1.17;;;;;;;;;;4567563;28;20131;-71
2022/06/21 01:15:44;;;;;;;1.52;1.30;;;;;;;;;;4568139;28;20708;-71
2022/06/21 01:17:58;;;;;;;1.58;1.30;;;;;;;;;;4565904;28;20032;-71
2022/06/21 01:20:12;;;;;;;1.45;1.20;;;;;;;;;;4566981;28;20557;-70
2022/06/21 01:22:23;;;;;;;1.40;1.30;;;;;;;;;;4552115;28;21163;-70
2022/06/21 01:24:42;;;;;;;1.85;1.50;;;;;;;;;;4565889;28;20051;-71
2022/06/21 01:26:58;;;;;;;1.30;1.20;;;;;;;;;;4565601;28;20035;-70
2022/06/21 01:29:17;;;;;;;1.10;1.00;;;;;;;;;;4568221;28;20510;-70
2022/06/21 01:31:29;;;;;;;1.52;1.00;;;;;;;;;;4566204;27;20042;-70
2022/06/21 01:33:41;;;;;;;1.30;1.20;;;;;;;;;;4564991;28;20028;-70
2022/06/21 01:35:53;;;;;;;1.75;1.20;;;;;;;;;;4566502;28;20113;-70
2022/06/21 01:38:05;;;;;;;1.38;1.27;;;;;;;;;;4574090;28;20036;-70
2022/06/21 01:40:26;;;;;;;1.40;1.20;;;;;;;;;;4564914;28;20035;-70
2022/06/21 01:42:49;;;;;;;1.30;1.20;;;;;;;;;;4565992;28;20096;-70
2022/06/21 01:45:05;;;;;;;1.95;1.38;;;;;;;;;;4567121;28;20040;-70
2022/06/21 01:47:19;;;;;;;2.07;1.20;;;;;;;;;;4564605;28;20031;-71
2022/06/21 01:49:33;;;;;;;1.80;1.40;;;;;;;;;;4563092;28;20032;-71
2022/06/21 01:52:06;;;;;;;1.40;1.20;;;;;;;;;;4567762;28;20744;-71
2022/06/21 01:54:20;;;;;;;2.00;1.20;;;;;;;;;;4573931;28;20032;-71
2022/06/21 01:56:33;;;;;;;1.48;1.38;;;;;;;;;;4563058;28;20049;-70
2022/06/21 01:58:48;;;;;;;1.30;1.20;;;;;;;;;;4565112;28;20036;-70
2022/06/21 02:01:10;;;;;;;1.73;1.38;;;;;;;;;;4560847;28;20040;-71
2022/06/21 02:03:22;;;;;;;1.83;1.30;;;;;;;;;;4564889;28;20110;-71
2022/06/21 02:05:38;;;;;;;1.73;1.40;;;;;;;;;;4560871;28;20032;-70
2022/06/21 02:07:52;;;;;;;1.38;1.15;;;;;;;;;;4567467;28;20060;-70
2022/06/21 02:10:19;;;;;;;1.40;1.00;;;;;;;;;;4549548;28;20037;-71
2022/06/21 02:12:31;;;;;;;2.03;1.30;;;;;;;;;;4573514;28;20040;-72
2022/06/21 02:14:48;;;;;;;2.35;1.35;;;;;;;;;;4564193;28;20039;-71
2022/06/21 02:17:12;;;;;;;1.55;1.30;;;;;;;;;;4564547;28;20024;-71
2022/06/21 02:19:28;;;;;;;1.35;1.25;;;;;;;;;;4566303;28;20499;-70
2022/06/21 02:21:41;;;;;;;1.42;1.17;;;;;;;;;;4572517;28;20040;-71
2022/06/21 02:23:55;;;;;;;1.55;1.30;;;;;;;;;;4573280;28;21550;-70
2022/06/21 02:26:05;;;;;;;1.75;1.10;;;;;;;;;;4564304;28;20484;-71
2022/06/21 02:28:17;;;;;;;1.50;1.23;;;;;;;;;;4549163;28;20036;-70
2022/06/21 02:30:29;;;;;;;1.73;1.40;;;;;;;;;;4567511;28;20028;-71
2022/06/21 02:32:41;;;;;;;1.65;1.10;;;;;;;;;;4564007;28;20079;-71
2022/06/21 02:34:56;;;;;;;1.35;1.20;;;;;;;;;;4573750;28;20054;-71
2022/06/21 02:37:09;;;;;;;1.20;1.10;;;;;;;;;;4565749;28;20037;-70
2022/06/21 02:39:21;;;;;;;1.20;1.10;;;;;;;;;;4547332;28;20017;-70
2022/06/21 02:41:37;;;;;;;1.73;1.25;;;;;;;;;;4564274;28;20032;-71
2022/06/21 02:43:57;;;;;;;1.30;1.20;;;;;;;;;;4562733;28;20556;-70
2022/06/21 02:46:14;;;;;;;1.40;1.20;;;;;;;;;;4565182;27;20499;-71
2022/06/21 02:48:29;;;;;;;1.27;1.17;;;;;;;;;;4566527;28;20857;-71
2022/06/21 02:50:44;;;;;;;1.48;1.20;;;;;;;;;;4567670;28;20652;-70
2022/06/21 02:52:55;;;;;;;1.42;1.17;;;;;;;;;;4563878;28;20040;-70
2022/06/21 02:55:27;;;;;;;1.45;1.10;;;;;;;;;;4566154;28;20028;-70
2022/06/21 02:57:43;;;;;;;1.33;1.20;;;;;;;;;;4568287;28;20040;-71
2022/06/21 02:59:54;;;;;;;1.58;1.20;;;;;;;;;;4563063;28;20135;-70
2022/06/21 03:02:09;;;;;;;2.40;1.30;;;;;;;;;;4564442;28;20036;-71
2022/06/21 03:04:23;;;;;;;1.38;1.20;;;;;;;;;;4564989;27;21356;-71
2022/06/21 03:06:33;;;;;;;1.10;1.00;;;;;;;;;;4566190;28;20036;-71
2022/06/21 03:09:00;;;;;;;1.42;1.33;;;;;;;;;;4551031;28;20575;-70
2022/06/21 03:11:10;;;;;;;1.50;1.20;;;;;;;;;;4573048;28;20032;-70
2022/06/21 03:13:26;;;;;;;2.28;1.30;;;;;;;;;;4563196;28;20405;-70
2022/06/21 03:15:37;;;;;;;1.58;1.20;;;;;;;;;;4565353;28;20056;-71
2022/06/21 03:18:01;;;;;;;1.58;1.10;;;;;;;;;;4555869;28;20111;-70
2022/06/21 03:20:15;;;;;;;1.75;1.10;;;;;;;;;;4566186;28;20697;-71
2022/06/21 03:22:30;;;;;;;1.75;1.40;;;;;;;;;;4545013;28;20020;-70
2022/06/21 03:24:40;;;;;;;1.75;1.30;;;;;;;;;;4562041;28;20048;-72
2022/06/21 03:26:56;;;;;;;1.40;1.30;;;;;;;;;;4563306;28;20060;-70
2022/06/21 03:29:07;;;;;;;1.50;1.17;;;;;;;;;;4566447;28;20036;-70
2022/06/21 03:31:22;;;;;;;2.03;1.30;;;;;;;;;;4564608;28;20053;-70
2022/06/21 03:33:35;;;;;;;1.30;1.20;;;;;;;;;;4563647;28;20461;-70
2022/06/21 03:35:45;;;;;;;1.55;1.15;;;;;;;;;;4562473;28;20029;-71
2022/06/21 03:37:56;;;;;;;1.15;1.05;;;;;;;;;;4562907;28;20118;-70
2022/06/21 03:42:41;;;;;;;1.40;1.25;;;;;;;;;;4561074;28;20550;-70
2022/06/21 03:45:06;;;;;;;1.65;1.20;;;;;;;;;;4562498;28;20604;-70
2022/06/21 03:47:20;;;;;;;1.42;1.30;;;;;;;;;;4564815;28;20033;-70
2022/06/21 03:49:34;;;;;;;1.30;1.20;;;;;;;;;;4564671;28;20029;-70
2022/06/21 03:51:45;;;;;;;3.00;1.20;;;;;;;;;;4563839;28;20032;-71
2022/06/21 03:54:22;;;;;;;1.63;1.20;;;;;;;;;;4562188;28;20155;-71
2022/06/21 03:56:41;;;;;;;1.58;1.00;;;;;;;;;;4562050;28;20075;-70
2022/06/21 03:59:05;;;;;;;1.85;1.20;;;;;;;;;;4561139;27;20036;-70
2022/06/21 04:01:22;;;;;;;2.47;1.35;;;;;;;;;;4549102;28;20033;-71
2022/06/21 04:03:41;;;;;;;1.25;1.02;;;;;;;;;;4563347;28;20040;-72
2022/06/21 04:05:59;;;;;;;1.20;1.10;;;;;;;;;;4561018;28;20036;-70
2022/06/21 04:08:16;;;;;;;1.90;1.17;;;;;;;;;;4565574;28;20033;-70
2022/06/21 04:11:11;;;;;;;1.45;1.23;;;;;;;;;;4561464;28;20127;-71
2022/06/21 04:13:49;;;;;;;1.30;1.20;;;;;;;;;;4522660;28;20040;-71
2022/06/21 04:16:08;;;;;;;1.42;1.13;;;;;;;;;;4522157;28;20049;-70
2022/06/21 04:18:33;;;;;;;1.35;1.20;;;;;;;;;;4517643;28;20072;-70
2022/06/21 04:21:10;;;;;;;1.52;1.30;;;;;;;;;;4508331;28;20561;-70
2022/06/21 04:23:54;;;;;;;1.65;1.20;;;;;;;;;;4511099;28;20656;-70
2022/06/21 04:26:08;;;;;;;2.47;1.45;;;;;;;;;;4507275;28;20143;-70
2022/06/21 04:28:33;;;;;;;1.55;1.30;;;;;;;;;;4524226;28;20195;-70
2022/06/21 04:30:51;;;;;;;3.35;1.52;;;;;;;;;;4506773;28;20841;-70
2022/06/21 04:33:09;;;;;;;1.67;1.40;;;;;;;;;;4507747;28;20046;-70
2022/06/21 04:35:30;;;;;;;1.92;1.45;;;;;;;;;;4507728;28;20037;-69
2022/06/21 04:38:12;;;;;;;1.92;1.40;;;;;;;;;;4506867;28;20141;-70
2022/06/21 04:40:33;;;;;;;1.50;1.33;;;;;;;;;;4509405;28;20695;-69
2022/06/21 04:42:51;;;;;;;2.28;1.33;;;;;;;;;;4507577;28;20038;-69
2022/06/21 04:45:50;;;;;;;1.73;1.63;;;;;;;;;;4553997;28;20374;-69
2022/06/21 04:48:22;;;;;;;2.35;1.48;;;;;;;;;;4531143;28;20131;-70
2022/06/21 04:50:51;;;;;;;1.55;1.42;;;;;;;;;;4559415;28;20048;-69
2022/06/21 04:53:13;;;;;;;2.00;1.30;;;;;;;;;;4565126;28;20041;-70
2022/06/21 04:55:29;;;;;;;1.90;1.70;;;;;;;;;;4574202;28;20030;-69
2022/06/21 04:57:39;;;;;;;2.17;1.42;;;;;;;;;;4573986;28;20032;-69
2022/06/21 05:00:04;;;;;;;2.08;1.60;;;;;;;;;;4564808;28;20602;-70
2022/06/21 05:02:18;;;;;;;1.77;1.50;;;;;;;;;;4574724;28;20032;-70
2022/06/21 05:04:32;;;;;;;2.38;1.50;;;;;;;;;;4540009;28;20599;-69
2022/06/21 05:06:43;;;;;;;1.67;1.40;;;;;;;;;;4565421;27;20033;-69
2022/06/21 05:08:53;;;;;;;2.35;1.65;;;;;;;;;;4562824;28;20037;-68
2022/06/21 05:11:04;;;;;;;2.15;1.45;;;;;;;;;;4567351;28;20040;-69
2022/06/21 05:13:23;;;;;;;1.80;1.52;;;;;;;;;;4566128;27;20067;-69
2022/06/21 05:15:36;;;;;;;2.72;1.60;;;;;;;;;;4566880;28;20791;-69
2022/06/21 05:17:52;;;;;;;2.20;1.65;;;;;;;;;;4567946;28;20067;-69
2022/06/21 05:20:06;;;;;;;2.15;1.60;;;;;;;;;;4562029;28;20180;-70
2022/06/21 05:22:28;;;;;;;1.70;1.60;;;;;;;;;;4565185;27;20029;-70
2022/06/21 05:24:39;;;;;;;1.75;1.45;;;;;;;;;;4566469;28;20051;-69
2022/06/21 05:27:18;;;;;;;2.05;1.55;;;;;;;;;;4566644;28;20081;-69
2022/06/21 05:29:38;;;;;;;2.22;1.42;;;;;;;;;;4551937;28;20080;-68
2022/06/21 05:31:53;;;;;;;2.33;1.77;;;;;;;;;;4566739;28;20126;-69
2022/06/21 05:34:14;;;;;;;1.50;1.40;;;;;;;;;;4563195;28;20063;-69
2022/06/21 05:36:31;;;;;;;2.20;1.42;;;;;;;;;;4557269;28;20167;-69
2022/06/21 05:38:54;;;;;;;1.95;1.67;;;;;;;;;;4564513;28;20037;-69
2022/06/21 05:41:29;;;;;;;2.20;1.65;;;;;;;;;;4556847;28;20036;-69
2022/06/21 05:43:47;;;;;;;1.75;1.52;;;;;;;;;;4564608;28;20082;-69
2022/06/21 05:46:04;;;;;;;2.50;1.48;;;;;;;;;;4563423;28;20040;-68
2022/06/21 05:48:25;;;;;;;;;;;;;;;;;;4568591;28;20036;-70
2022/06/21 05:50:35;;;;;;;2.58;1.55;;;;;;;;;;4566839;27;19912;-69
2022/06/21 05:52:49;;;;;;;1.77;1.50;;;;;;;;;;4564693;28;20039;-69
2022/06/21 05:55:17;;;;;;;3.13;1.70;;;;;;;;;;4568532;27;20036;-69
2022/06/21 05:57:30;;;;;;;;;;;;;;;;;;4562403;27;20032;-69
2022/06/21 05:59:41;;;;;;;2.38;1.70;;;;;;;;;;4571910;28;20435;-69
2022/06/21 06:01:54;;;;;;;2.67;1.80;;;;;;;;;;4564093;28;20024;-70
2022/06/21 06:04:12;;;;;;;2.78;1.80;;;;;;;;;;4564367;27;20502;-70
2022/06/21 06:06:23;;;;;;;2.75;1.70;;;;;;;;;;4566601;28;20706;-69
2022/06/21 06:08:38;;;;;;;2.30;1.73;;;;;;;;;;4565748;28;20593;-69
2022/06/21 06:10:49;;;;;;;2.53;1.70;;;;;;;;;;4565163;28;20020;-69
2022/06/21 06:13:03;;;;;;;2.40;1.58;;;;;;;;;;4566134;27;20040;-70
2022/06/21 06:15:21;;;;;;;2.13;1.55;;;;;;;;;;4572992;28;20044;-69
2022/06/21 06:17:38;;;;;;;2.72;1.70;;;;;;;;;;4557018;28;20044;-69
2022/06/21 06:19:57;;;;;;;3.47;2.15;;;;;;;;;;4563564;28;20036;-69
2022/06/21 06:22:24;;;;;;;2.75;1.80;;;;;;;;;;4564882;28;20046;-69
2022/06/21 06:24:43;;;;;;;1.88;1.67;;;;;;;;;;4566757;28;20044;-69
2022/06/21 06:26:56;;;;;;;2.45;1.60;;;;;;;;;;4562558;28;20106;-70
2022/06/21 06:29:17;;;;;;;2.63;1.80;;;;;;;;;;4565922;28;20622;-69
2022/06/21 06:32:00;;;;;;;2.50;1.50;;;;;;;;;;4564389;28;20025;-69
2022/06/21 06:34:37;;;;;;;2.40;1.60;;;;;;;;;;4564986;28;20725;-70
2022/06/21 06:36:52;;;;;;;1.83;1.50;;;;;;;;;;4560834;28;20169;-67
2022/06/21 06:39:10;;;;;;;2.20;1.60;;;;;;;;;;4565783;28;20041;-67
2022/06/21 06:41:26;;;;;;;2.50;1.40;;;;;;;;;;4563757;28;20646;-66
2022/06/21 06:43:57;;;;;;;2.58;1.60;;;;;;;;;;4563535;28;20085;-67
2022/06/21 06:46:14;;;;;;;1.92;1.40;;;;;;;;;;4564787;28;20085;-68
2022/06/21 06:48:29;;;;;;;2.88;1.45;;;;;;;;;;4565857;28;20032;-67
2022/06/21 06:50:51;;;;;;;2.50;1.40;;;;;;;;;;4563279;28;20036;-67
2022/06/21 06:53:07;;;;;;;3.08;1.48;;;;;;;;;;4565659;28;20063;-68
2022/06/21 06:55:17;;;;;;;2.15;1.40;;;;;;;;;;4562289;28;20084;-68
2022/06/21 06:57:54;;;;;;;2.15;1.30;;;;;;;;;;4562204;28;20047;-67
2022/06/21 07:00:18;;;;;;;1.95;1.40;;;;;;;;;;4541599;28;20587;-68
2022/06/21 07:02:38;;;;;;;1.80;1.20;;;;;;;;;;4563798;28;20043;-67
2022/06/21 07:04:57;;;;;;;2.58;1.40;;;;;;;;;;4566014;28;20045;-67
2022/06/21 07:07:18;;;;;;;2.88;1.20;;;;;;;;;;4566026;28;20039;-68
2022/06/21 07:10:05;;;;;;;3.25;1.38;;;;;;;;;;4548862;28;20131;-67
2022/06/21 07:12:19;;;;;;;2.33;1.40;;;;;;;;;;4531170;28;20041;-68
2022/06/21 07:14:29;;;;;;;3.05;1.45;;;;;;;;;;4554947;28;20036;-67
2022/06/21 07:16:41;;;;;;;2.03;1.10;;;;;;;;;;4563609;28;20496;-68
2022/06/21 07:18:54;;;;;;;1.92;1.30;;;;;;;;;;4565587;28;20041;-68
2022/06/21 07:21:05;;;;;;;3.22;1.60;;;;;;;;;;4564108;28;20039;-67
2022/06/21 07:23:19;;;;;;;2.42;1.35;;;;;;;;;;4563274;28;20890;-68
2022/06/21 07:25:42;;;;;;;3.20;1.73;;;;;;;;;;4562746;28;20046;-68
2022/06/21 07:28:02;;;;;;;2.47;1.60;;;;;;;;;;4566476;28;20087;-68
2022/06/21 07:30:14;;;;;;;2.35;1.52;;;;;;;;;;4572978;28;20035;-68
2022/06/21 07:32:29;;;;;;;2.67;1.75;;;;;;;;;;4566051;28;20068;-68
2022/06/21 07:34:47;;;;;;;2.15;1.58;;;;;;;;;;4566589;28;20039;-68
2022/06/21 07:37:10;;;;;;;2.50;1.70;;;;;;;;;;4565611;28;20020;-68
2022/06/21 07:39:39;;;;;;;3.15;1.60;;;;;;;;;;4567529;28;20392;-68
2022/06/21 07:42:08;;;;;;;3.25;2.10;;;;;;;;;;4550499;28;20617;-67
2022/06/21 07:44:24;;;;;;;2.95;1.70;;;;;;;;;;4564457;28;20024;-67
2022/06/21 07:46:39;;;;;;;3.95;1.90;;;;;;;;;;4565299;28;20063;-67
2022/06/21 07:49:12;;;;;;;2.60;1.60;;;;;;;;;;4565168;28;20564;-67
2022/06/21 07:51:27;;;;;;;2.63;1.60;;;;;;;;;;4555124;28;20080;-67
2022/06/21 07:53:52;;;;;;;1.95;1.25;;;;;;;;;;4561311;28;20036;-68
2022/06/21 07:56:16;;;;;;;3.10;1.50;;;;;;;;;;4563523;28;20032;-68
2022/06/21 07:58:56;;;;;;;3.00;1.50;;;;;;;;;;4565503;28;20037;-68
2022/06/21 08:06:44;;;;;;;2.75;1.40;;;;;;;;;;4562480;28;20062;-68
2022/06/21 08:09:06;;;;;;;1.38;1.20;;;;;;;;;;4568064;27;20071;-67
2022/06/21 08:11:32;;;;;;;2.25;1.50;;;;;;;;;;4563602;28;20050;-68
2022/06/21 08:13:42;;;;;;;2.45;1.50;;;;;;;;;;4566129;28;20039;-67
2022/06/21 08:16:12;;;;;;;2.20;1.27;;;;;;;;;;4563961;28;20047;-68
2022/06/21 08:18:37;;;;;;;2.22;1.40;;;;;;;;;;4563722;28;20155;-69
2022/06/21 08:20:57;;;;;;;1.90;1.08;;;;;;;;;;4562898;28;20756;-69
2022/06/21 08:23:12;;;;;;;2.67;1.50;;;;;;;;;;4562209;28;20037;-68
2022/06/21 08:25:47;;;;;;;2.67;1.25;;;;;;;;;;4564957;27;20806;-68
2022/06/21 08:28:06;;;;;;;2.05;1.30;;;;;;;;;;4565240;28;20519;-68
2022/06/21 08:30:21;;;;;;;1.48;1.00;;;;;;;;;;4562836;28;20189;-66
2022/06/21 08:32:34;;;;;;;2.08;1.10;;;;;;;;;;4564615;28;20039;-69
2022/06/21 08:34:52;;;;;;;1.25;1.10;;;;;;;;;;4571956;28;20039;-68
2022/06/21 08:37:10;;;;;;;2.35;1.00;;;;;;;;;;4560913;27;20077;-68
2022/06/21 08:40:02;;;;;;;1.45;1.00;;;;;;;;;;4564235;28;20032;-68
2022/06/21 08:42:28;;;;;;;1.67;1.00;;;;;;;;;;4543154;28;20083;-68
2022/06/21 08:47:35;;;;;;;1.73;0.90;;;;;;;;;;4563319;28;20041;-68
2022/06/21 08:50:23;;;;;;;1.77;0.95;;;;;;;;;;4562507;28;20029;-68
2022/06/21 08:52:42;;;;;;;1.35;0.93;;;;;;;;;;4562431;28;20159;-68
2022/06/21 08:54:59;;;;;;;1.63;0.70;;;;;;;;;;4563144;28;20630;-67
2022/06/21 08:57:22;;;;;;;1.30;0.90;;;;;;;;;;4563678;27;20032;-69
2022/06/21 08:59:44;;;;;;;2.30;1.10;;;;;;;;;;4562968;28;20862;-69
2022/06/21 09:02:14;;;;;;;2.05;1.23;;;;;;;;;;4564318;28;20560;-68
2022/06/21 09:04:37;;;;;;;1.38;0.90;;;;;;;;;;4566420;28;20043;-69
2022/06/21 09:07:23;;;;;;;2.28;0.90;;;;;;;;;;4564339;27;20113;-68
2022/06/21 09:09:51;;;;;;;1.38;0.90;;;;;;;;;;4563944;28;20665;-68
2022/06/21 09:12:05;;;;;;;0.70;0.70;;;;;;;;;;4548899;28;20065;-69
2022/06/21 09:14:18;;;;;;;1.58;1.10;;;;;;;;;;4563251;28;20098;-68
2022/06/21 09:16:39;;;;;;;1.00;0.90;;;;;;;;;;4562673;28;20029;-68
2022/06/21 09:19:10;;;;;;;2.15;1.13;;;;;;;;;;4553885;28;20032;-68
2022/06/21 09:21:25;;;;;;;2.17;0.88;;;;;;;;;;4563975;28;20587;-69
2022/06/21 09:24:02;;;;;;;1.58;0.70;;;;;;;;;;4562897;27;20033;-68
2022/06/21 09:26:31;;;;;;;0.85;0.80;;;;;;;;;;4561587;28;20078;-69
2022/06/21 09:28:53;;;;;;;1.45;1.00;;;;;;;;;;4562841;28;20036;-68
2022/06/21 09:31:10;;;;;;;1.25;0.80;;;;;;;;;;4565180;27;20028;-69
2022/06/21 09:33:27;;;;;;;1.25;0.80;;;;;;;;;;4573977;28;20042;-70
2022/06/21 09:35:53;;;;;;;0.95;0.65;;;;;;;;;;4551382;28;20131;-69
2022/06/21 09:38:16;;;;;;;1.08;0.80;;;;;;;;;;4566329;28;20032;-70
2022/06/21 09:41:06;;;;;;;2.35;0.82;;;;;;;;;;4574347;28;20033;-68
2022/06/21 09:43:29;;;;;;;2.03;0.80;;;;;;;;;;4546606;28;20047;-68
2022/06/21 09:46:05;;;;;;;0.75;0.75;;;;;;;;;;4551019;28;20749;-68
2022/06/21 09:48:23;;;;;;;1.23;0.70;;;;;;;;;;4568243;28;20040;-68
2022/06/21 09:51:04;;;;;;;0.75;0.60;;;;;;;;;;4533908;28;20344;-69
2022/06/21 09:53:34;;;;;;;1.23;0.70;;;;;;;;;;4564469;28;20181;-69
2022/06/21 09:56:13;;;;;;;1.10;0.70;;;;;;;;;;4568320;28;20146;-69
2022/06/21 09:58:23;;;;;;;1.17;0.70;;;;;;;;;;4564894;28;21593;-68
2022/06/21 10:00:48;;;;;;;0.98;0.63;;;;;;;;;;4565097;27;20028;-68
2022/06/21 10:03:37;;;;;;;1.45;0.80;;;;;;;;;;4563003;28;20036;-68
2022/06/21 10:06:01;;;;;;;1.17;0.75;;;;;;;;;;4566598;28;20622;-68
2022/06/21 10:08:19;;;;;;;1.23;0.80;;;;;;;;;;4565432;27;20044;-70
2022/06/21 10:10:45;;;;;;;0.82;0.75;;;;;;;;;;4568088;28;20046;-68
2022/06/21 10:13:07;;;;;;;0.80;0.70;;;;;;;;;;4565045;28;20024;-69
2022/06/21 10:15:47;;;;;;;1.25;0.70;;;;;;;;;;4566552;28;20040;-69
2022/06/21 10:18:18;;;;;;;2.45;0.75;;;;;;;;;;4565312;28;20043;-68
2022/06/21 10:20:42;;;;;;;1.75;0.70;;;;;;;;;;4574285;28;20044;-69
2022/06/21 10:23:25;;;;;;;1.80;0.80;;;;;;;;;;4566792;28;20043;-70
2022/06/21 10:25:54;;;;;;;1.70;0.82;;;;;;;;;;4564364;28;20036;-69
2022/06/21 10:28:20;;;;;;;0.77;0.60;;;;;;;;;;4564962;28;20072;-69
2022/06/21 10:30:57;;;;;;;1.45;0.80;;;;;;;;;;4564600;28;20157;-68
2022/06/21 10:33:44;;;;;;;1.13;0.80;;;;;;;;;;4551009;28;20055;-68
2022/06/21 10:36:03;;;;;;;1.10;0.90;;;;;;;;;;4554797;28;20072;-68
2022/06/21 10:38:14;;;;;;;3.00;1.00;;;;;;;;;;4564833;27;20052;-70
2022/06/21 10:40:39;;;;;;;1.15;0.75;;;;;;;;;;4563560;28;20552;-69
2022/06/21 10:43:18;;;;;;;1.25;0.80;;;;;;;;;;4564527;27;20029;-68
2022/06/21 10:45:59;;;;;;;1.45;0.82;;;;;;;;;;4565619;28;20040;-69
2022/06/21 10:48:54;;;;;;;2.00;1.08;;;;;;;;;;4564191;28;20075;-68
2022/06/21 10:51:11;;;;;;;1.58;0.60;;;;;;;;;;4560217;28;20099;-69
2022/06/21 10:53:21;;;;;;;1.58;0.90;;;;;;;;;;4548704;28;20139;-69
2022/06/21 10:55:44;;;;;;;1.33;0.90;;;;;;;;;;4564173;28;20131;-68
2022/06/21 10:58:07;;;;;;;1.65;0.70;;;;;;;;;;4564432;28;20032;-68
2022/06/21 11:03:37;;;;;;;1.90;1.08;;;;;;;;;;4564406;28;20032;-68
2022/06/21 11:06:25;;;;;;;2.78;1.00;;;;;;;;;;4566593;28;20052;-68
2022/06/21 11:09:11;;;;;;;1.07;0.90;;;;;;;;;;4565533;28;20051;-68
2022/06/21 11:11:37;;;;;;;2.15;1.00;;;;;;;;;;4555732;28;20071;-70
2022/06/21 11:14:20;;;;;;;1.67;1.00;;;;;;;;;;4563784;28;20032;-68
2022/06/21 11:16:50;;;;;;;1.45;0.82;;;;;;;;;;4564981;28;20838;-68
2022/06/21 11:19:32;;;;;;;1.58;1.00;;;;;;;;;;4563135;28;20135;-68
2022/06/21 11:22:07;;;;;;;1.92;0.90;;;;;;;;;;4555265;28;20805;-69
2022/06/21 11:24:28;;;;;;;1.77;0.93;;;;;;;;;;4564196;28;20090;-68
2022/06/21 11:26:51;;;;;;;1.85;0.90;;;;;;;;;;4564606;28;20036;-68
2022/06/21 11:29:12;;;;;;;2.03;1.13;;;;;;;;;;4572264;28;20710;-70
2022/06/21 11:31:28;;;;;;;1.92;0.80;;;;;;;;;;4561871;28;20038;-69
2022/06/21 11:33:51;;;;;;;2.08;1.08;;;;;;;;;;4562732;28;20098;-69
2022/06/21 11:36:11;;;;;;;1.02;0.80;;;;;;;;;;4564643;28;20592;-70
2022/06/21 11:38:56;;;;;;;1.25;0.90;;;;;;;;;;4563531;27;20092;-69
2022/06/21 11:44:21;;;;;;;0.82;0.80;;;;;;;;;;4565089;28;20040;-69
2022/06/21 11:46:56;;;;;;;1.90;0.80;;;;;;;;;;4562897;28;20072;-69
2022/06/21 11:49:31;;;;;;;2.03;1.05;;;;;;;;;;4564368;27;20087;-69
2022/06/21 11:52:00;;;;;;;1.00;0.90;;;;;;;;;;4563459;28;20614;-70
2022/06/21 11:54:17;;;;;;;1.88;0.80;;;;;;;;;;4562316;28;20032;-70
2022/06/21 11:56:34;;;;;;;1.42;0.77;;;;;;;;;;4563082;28;20032;-70
2022/06/21 11:58:52;;;;;;;1.52;1.00;;;;;;;;;;4563306;28;20024;-68
2022/06/21 12:01:14;;;;;;;0.85;0.70;;;;;;;;;;4554626;28;20040;-68
2022/06/21 12:03:57;;;;;;;1.42;0.80;;;;;;;;;;4562095;28;20047;-68
2022/06/21 12:06:13;;;;;;;1.95;1.05;;;;;;;;;;4548622;28;20055;-68
2022/06/21 12:08:37;;;;;;;1.27;0.70;;;;;;;;;;4571149;28;20105;-69
2022/06/21 12:11:04;;;;;;;0.88;0.80;;;;;;;;;;4565954;28;20647;-69
2022/06/21 12:13:21;;;;;;;2.60;0.85;;;;;;;;;;4562989;28;21030;-70
2022/06/21 12:15:50;;;;;;;0.80;0.70;;;;;;;;;;4563560;28;20656;-69
2022/06/21 12:18:05;;;;;;;1.60;0.80;;;;;;;;;;4563842;28;20029;-69
2022/06/21 12:20:39;;;;;;;0.80;0.70;;;;;;;;;;4571895;28;20036;-68
2022/06/21 12:22:55;;;;;;;2.42;0.75;;;;;;;;;;4557452;28;21055;-69
2022/06/21 12:25:10;;;;;;;1.50;0.80;;;;;;;;;;4563146;28;20119;-69
2022/06/21 12:27:21;;;;;;;1.50;0.70;;;;;;;;;;4564640;28;20028;-70
2022/06/21 12:29:31;;;;;;;1.38;0.80;;;;;;;;;;4562912;27;20541;-70
2022/06/21 12:31:50;;;;;;;0.70;0.70;;;;;;;;;;4564778;28;20066;-68
2022/06/21 12:34:10;;;;;;;1.33;0.70;;;;;;;;;;4564174;28;20044;-68
2022/06/21 12:36:32;;;;;;;0.98;0.70;;;;;;;;;;4571877;28;20040;-70
2022/06/21 12:38:51;;;;;;;1.10;0.70;;;;;;;;;;4557025;28;20107;-68
2022/06/21 12:41:12;;;;;;;0.68;0.57;;;;;;;;;;4561739;28;20048;-69
2022/06/21 12:43:48;;;;;;;0.70;0.60;;;;;;;;;;4548509;28;20040;-68
2022/06/21 12:46:04;;;;;;;1.85;0.70;;;;;;;;;;4550496;28;20583;-68
2022/06/21 12:48:54;;;;;;;0.77;0.50;;;;;;;;;;4563524;28;20064;-69
2022/06/21 12:51:19;;;;;;;0.88;0.70;;;;;;;;;;4555886;27;20171;-68
2022/06/21 12:53:49;;;;;;;1.27;0.75;;;;;;;;;;4565898;28;20634;-69
2022/06/21 12:56:33;;;;;;;0.82;0.70;;;;;;;;;;4563831;28;21218;-69
2022/06/21 12:58:58;;;;;;;1.00;0.70;;;;;;;;;;4562840;28;20041;-68
2022/06/21 13:01:14;;;;;;;1.05;0.80;;;;;;;;;;4571764;28;20102;-69
2022/06/21 13:03:43;;;;;;;1.38;0.75;;;;;;;;;;4568012;28;20811;-68
2022/06/21 13:06:00;;;;;;;1.05;0.70;;;;;;;;;;4563206;28;20040;-68
2022/06/21 13:08:29;;;;;;;0.75;0.60;;;;;;;;;;4566203;28;20123;-68
2022/06/21 13:10:55;;;;;;;1.20;0.60;;;;;;;;;;4566377;28;20060;-68
2022/06/21 13:13:15;;;;;;;0.70;0.70;;;;;;;;;;4569224;28;20085;-68
2022/06/21 13:15:56;;;;;;;0.93;0.68;;;;;;;;;;4565457;27;20047;-68
2022/06/21 13:18:18;;;;;;;1.08;0.70;;;;;;;;;;4567801;28;20043;-67
2022/06/21 13:20:36;;;;;;;0.93;0.60;;;;;;;;;;4574309;28;20038;-68
2022/06/21 13:23:00;;;;;;;1.60;0.80;;;;;;;;;;4559979;28;20481;-68
2022/06/21 13:25:29;;;;;;;1.23;0.70;;;;;;;;;;4565512;28;20036;-68
2022/06/21 13:27:46;;;;;;;0.60;0.60;;;;;;;;;;4569031;28;20044;-68
2022/06/21 13:30:04;;;;;;;0.82;0.63;;;;;;;;;;4566223;28;20043;-68
2022/06/21 13:32:22;;;;;;;1.13;0.70;;;;;;;;;;4567055;28;20147;-68
2022/06/21 13:34:36;;;;;;;1.38;0.70;;;;;;;;;;4563117;28;20037;-68
2022/06/21 13:36:49;;;;;;;1.13;0.70;;;;;;;;;;4557744;28;20039;-68
2022/06/21 13:39:34;;;;;;;1.35;0.80;;;;;;;;;;4567379;28;20060;-68
2022/06/21 13:44:45;;;;;;;1.35;0.70;;;;;;;;;;4565273;28;20028;-68
2022/06/21 13:47:02;;;;;;;1.23;0.70;;;;;;;;;;4567115;28;20135;-69
2022/06/21 13:49:20;;;;;;;0.65;0.60;;;;;;;;;;4567704;28;20047;-69
2022/06/21 13:51:33;;;;;;;0.70;0.70;;;;;;;;;;4574764;28;20105;-69
2022/06/21 13:54:05;;;;;;;1.27;0.65;;;;;;;;;;4565204;28;20041;-70
2022/06/21 13:56:47;;;;;;;0.80;0.60;;;;;;;;;;4566308;28;20081;-70
2022/06/21 13:59:12;;;;;;;1.88;0.70;;;;;;;;;;4552542;28;20048;-70
2022/06/21 14:01:46;;;;;;;0.93;0.60;;;;;;;;;;4566531;28;20020;-70
2022/06/21 14:04:18;;;;;;;1.10;1.00;;;;;;;;;;4566129;28;20034;-69
2022/06/21 14:06:45;;;;;;;0.60;0.60;;;;;;;;;;4564486;28;20051;-69
2022/06/21 14:09:05;;;;;;;;;;;;;;;;;;4567835;28;20036;-69
2022/06/21 14:11:36;;;;;;;0.90;0.70;;;;;;;;;;4565983;28;19997;-68
2022/06/21 14:14:00;;;;;;;1.05;0.70;;;;;;;;;;4564102;28;21845;-68
2022/06/21 14:16:22;;;;;;;1.33;0.70;;;;;;;;;;4566184;27;20032;-68
2022/06/21 14:18:54;;;;;;;0.60;0.60;;;;;;;;;;4564495;27;20068;-68
2022/06/21 14:21:26;;;;;;;0.70;0.60;;;;;;;;;;4564654;28;20040;-68
2022/06/21 14:23:47;;;;;;;1.45;0.70;;;;;;;;;;4564078;28;20634;-68
2022/06/21 14:26:15;;;;;;;1.65;0.80;;;;;;;;;;4563560;28;20129;-68
2022/06/21 14:28:50;;;;;;;0.85;0.70;;;;;;;;;;4567559;28;20043;-68